Time;durP1;ratioP1;P1;durP2;ratioP2;P2;SDS_P1;SDS_P2;PMS_P1;PMS_P2;Temp;Humidity;BMP_temperature;BMP_pressure;BME280_temperature;BME280_humidity;BME280_pressure;Samples;Min_cycle;Max_cycle;Signal;HPM_P1;HPM_P2
2022/12/09 00:02:05;;;;;;;20.07;13.50;;;3.90;99.90;;;;;;4993132;28;20538;-80
2022/12/09 00:04:33;;;;;;;18.33;13.17;;;3.90;99.90;;;;;;4995192;28;20455;-81
2022/12/09 00:06:59;;;;;;;17.97;13.10;;;3.90;99.90;;;;;;4995372;28;20482;-82
2022/12/09 00:09:26;;;;;;;19.37;14.00;;;3.90;99.90;;;;;;4995703;28;20447;-79
2022/12/09 00:11:54;;;;;;;21.63;14.70;;;3.90;99.90;;;;;;4995248;28;20455;-81
2022/12/09 00:14:23;;;;;;;20.40;13.37;;;4.00;99.90;;;;;;4995484;28;20459;-81
2022/12/09 00:16:50;;;;;;;17.17;13.80;;;4.00;99.90;;;;;;4997096;28;20445;-80
2022/12/09 00:19:16;;;;;;;22.17;14.60;;;4.00;99.90;;;;;;4996926;28;20462;-80
2022/12/09 00:21:43;;;;;;;22.70;13.93;;;4.10;99.90;;;;;;4996884;28;20471;-79
2022/12/09 00:24:13;;;;;;;28.83;16.20;;;4.10;99.90;;;;;;4996628;28;20995;-80
2022/12/09 00:26:40;;;;;;;25.73;16.83;;;4.00;99.90;;;;;;4997196;28;20490;-81
2022/12/09 00:29:08;;;;;;;25.10;15.03;;;3.90;99.90;;;;;;4996438;28;20458;-81
2022/12/09 00:31:37;;;;;;;22.43;16.37;;;4.00;99.90;;;;;;4997192;28;20478;-80
2022/12/09 00:34:06;;;;;;;27.40;16.67;;;4.00;99.90;;;;;;4996657;28;20838;-79
2022/12/09 00:36:33;;;;;;;21.07;15.37;;;4.00;99.90;;;;;;4996846;28;20452;-81
2022/12/09 00:39:00;;;;;;;23.70;17.07;;;4.00;99.90;;;;;;4980082;28;20555;-80
2022/12/09 00:41:28;;;;;;;27.53;17.77;;;4.00;99.90;;;;;;4996743;28;20472;-81
2022/12/09 00:43:55;;;;;;;28.50;17.97;;;4.00;99.90;;;;;;4996163;28;20473;-82
2022/12/09 00:46:23;;;;;;;25.77;16.80;;;4.00;99.90;;;;;;4996235;28;21028;-79
2022/12/09 00:48:50;;;;;;;27.87;17.73;;;4.00;99.90;;;;;;4996520;28;20461;-80
2022/12/09 00:51:19;;;;;;;26.53;17.17;;;4.00;99.90;;;;;;4997137;28;20490;-79
2022/12/09 00:53:46;;;;;;;24.60;17.70;;;4.10;99.90;;;;;;4999900;28;20523;-81
2022/12/09 00:56:13;;;;;;;25.40;16.10;;;4.10;99.90;;;;;;4999921;28;20537;-78
2022/12/09 00:58:40;;;;;;;27.77;18.67;;;4.00;99.90;;;;;;4999136;28;20454;-81
2022/12/09 01:01:06;;;;;;;28.30;17.67;;;3.90;99.90;;;;;;4993998;28;20482;-79
2022/12/09 01:03:35;;;;;;;26.40;16.03;;;3.90;99.90;;;;;;4980865;28;20821;-78
2022/12/09 01:06:06;;;;;;;27.57;16.80;;;4.00;99.90;;;;;;4995733;28;20478;-80
2022/12/09 01:08:33;;;;;;;26.17;17.20;;;4.00;99.90;;;;;;4998594;28;20460;-80
2022/12/09 01:11:00;;;;;;;23.93;16.47;;;4.10;99.90;;;;;;5000474;28;20480;-80
2022/12/09 01:13:27;;;;;;;26.17;17.43;;;4.10;99.90;;;;;;5000499;28;20538;-80
2022/12/09 01:15:54;;;;;;;25.97;14.97;;;4.20;99.90;;;;;;4999451;28;20906;-80
2022/12/09 01:18:20;;;;;;;23.97;16.40;;;4.20;99.90;;;;;;4998866;28;20466;-81
2022/12/09 01:20:57;;;;;;;20.77;14.53;;;4.30;99.90;;;;;;4999359;28;20474;-80
2022/12/09 01:23:24;;;;;;;23.00;15.13;;;4.30;99.90;;;;;;4999354;28;20981;-78
2022/12/09 01:25:50;;;;;;;26.13;16.40;;;4.30;99.90;;;;;;4998440;28;20480;-78
2022/12/09 01:28:17;;;;;;;21.20;15.33;;;4.40;99.90;;;;;;4998955;28;20846;-79
2022/12/09 01:30:44;;;;;;;26.20;15.53;;;4.40;99.90;;;;;;4998848;28;20582;-80
2022/12/09 01:33:11;;;;;;;32.33;18.47;;;4.40;99.90;;;;;;4999006;28;20459;-81
2022/12/09 01:35:40;;;;;;;23.17;17.37;;;4.40;99.90;;;;;;4999648;28;20447;-79
2022/12/09 01:38:08;;;;;;;27.07;16.20;;;4.40;99.90;;;;;;4981843;28;20456;-78
2022/12/09 01:40:35;;;;;;;28.70;16.73;;;4.30;99.90;;;;;;4999114;28;20478;-79
2022/12/09 01:43:02;;;;;;;28.13;16.80;;;4.30;99.90;;;;;;4998478;28;20525;-80
2022/12/09 01:45:39;;;;;;;26.00;15.97;;;4.30;99.90;;;;;;4998446;28;20482;-79
2022/12/09 01:48:12;;;;;;;25.30;17.70;;;4.30;99.90;;;;;;4998122;28;20997;-80
2022/12/09 01:50:42;;;;;;;26.93;16.07;;;4.40;99.90;;;;;;4997827;28;20493;-79
2022/12/09 01:53:12;;;;;;;25.37;17.20;;;4.30;99.90;;;;;;4998988;28;20457;-80
2022/12/09 01:55:40;;;;;;;27.13;18.10;;;4.30;99.90;;;;;;4980170;28;20496;-81
2022/12/09 01:58:07;;;;;;;25.47;15.60;;;4.30;99.90;;;;;;4987428;28;20458;-79
2022/12/09 02:00:34;;;;;;;24.70;17.30;;;4.30;99.90;;;;;;4999047;28;20478;-78
2022/12/09 02:03:01;;;;;;;22.00;16.17;;;4.30;99.90;;;;;;4999365;28;21110;-80
2022/12/09 02:05:30;;;;;;;24.97;17.27;;;4.30;99.90;;;;;;4999318;28;20512;-78
2022/12/09 02:07:57;;;;;;;26.83;15.87;;;4.40;99.90;;;;;;4999388;28;20458;-80
2022/12/09 02:10:26;;;;;;;26.37;16.60;;;4.40;99.90;;;;;;4999062;28;20482;-81
2022/12/09 02:13:03;;;;;;;29.03;17.23;;;4.40;99.90;;;;;;4999558;28;20479;-80
2022/12/09 02:15:37;;;;;;;28.10;18.30;;;4.40;99.90;;;;;;5003044;28;20462;-80
2022/12/09 02:18:11;;;;;;;22.83;15.90;;;4.40;99.90;;;;;;5003179;28;20465;-81
2022/12/09 02:20:41;;;;;;;25.27;17.63;;;4.40;99.90;;;;;;4999562;28;20471;-80
2022/12/09 02:23:17;;;;;;;30.73;17.50;;;4.40;99.90;;;;;;4999124;28;20463;-80
2022/12/09 02:25:47;;;;;;;25.97;14.57;;;4.40;99.90;;;;;;4998351;28;20842;-80
2022/12/09 02:29:02;;;;;;;27.63;16.60;;;4.40;99.90;;;;;;4998635;28;20454;-80
2022/12/09 02:31:48;;;;;;;22.97;16.07;;;4.40;99.90;;;;;;4937789;29;20857;-79
2022/12/09 02:34:18;;;;;;;27.10;15.80;;;4.40;99.90;;;;;;4998924;28;20458;-79
2022/12/09 02:36:54;;;;;;;23.93;16.60;;;4.50;99.90;;;;;;4999005;28;20458;-80
2022/12/09 02:39:25;;;;;;;26.50;16.90;;;4.50;99.90;;;;;;4998608;28;20451;-77
2022/12/09 02:41:54;;;;;;;27.90;16.80;;;4.40;99.90;;;;;;4998317;28;20491;-78
2022/12/09 02:44:24;;;;;;;26.70;15.97;;;4.40;99.90;;;;;;4998897;28;20456;-80
2022/12/09 02:46:52;;;;;;;24.57;16.00;;;4.40;99.90;;;;;;4998215;28;20478;-81
2022/12/09 02:49:22;;;;;;;20.80;14.40;;;4.40;99.90;;;;;;4997677;28;20484;-80
2022/12/09 02:51:50;;;;;;;27.70;16.27;;;4.40;99.90;;;;;;4997869;28;20483;-79
2022/12/09 02:54:19;;;;;;;21.83;14.67;;;4.40;99.90;;;;;;4998128;28;20459;-80
2022/12/09 02:56:51;;;;;;;27.20;17.10;;;4.40;99.90;;;;;;4997092;28;20448;-78
2022/12/09 02:59:18;;;;;;;23.03;15.87;;;4.30;99.90;;;;;;4997633;28;20488;-82
2022/12/09 03:01:49;;;;;;;31.23;18.87;;;4.30;99.90;;;;;;4998246;28;20471;-81
2022/12/09 03:04:21;;;;;;;31.03;19.50;;;4.30;99.90;;;;;;4998255;28;20455;-79
2022/12/09 03:06:51;;;;;;;31.00;16.83;;;4.10;99.90;;;;;;4990529;28;20508;-79
2022/12/09 03:09:21;;;;;;;25.47;16.43;;;4.20;99.90;;;;;;4992263;28;20467;-80
2022/12/09 03:11:49;;;;;;;27.60;17.30;;;4.30;99.90;;;;;;4997501;28;20476;-79
2022/12/09 03:14:21;;;;;;;23.93;15.70;;;4.30;99.90;;;;;;4996116;28;20461;-78
2022/12/09 03:16:53;;;;;;;28.60;15.30;;;4.30;99.90;;;;;;4996266;28;20447;-79
2022/12/09 03:19:26;;;;;;;25.37;15.67;;;4.30;99.90;;;;;;4997952;28;20460;-79
2022/12/09 03:21:56;;;;;;;30.20;17.87;;;4.40;99.90;;;;;;4998228;28;20459;-80
2022/12/09 03:24:30;;;;;;;28.60;17.07;;;4.30;99.90;;;;;;4997577;28;20464;-80
2022/12/09 03:27:00;;;;;;;25.67;16.20;;;4.30;99.90;;;;;;4997240;28;20488;-79
2022/12/09 03:29:28;;;;;;;28.53;16.47;;;4.30;99.90;;;;;;4997726;28;20465;-78
2022/12/09 03:31:58;;;;;;;33.00;18.10;;;4.20;99.90;;;;;;4999105;28;20451;-79
2022/12/09 03:34:31;;;;;;;23.53;15.87;;;4.20;99.90;;;;;;4997899;28;20465;-80
2022/12/09 03:36:59;;;;;;;26.27;15.53;;;4.30;99.90;;;;;;4998565;28;20464;-79
2022/12/09 03:39:28;;;;;;;27.67;17.13;;;4.20;99.90;;;;;;4996821;28;20955;-78
2022/12/09 03:41:57;;;;;;;25.93;15.17;;;4.20;99.90;;;;;;4997777;28;20940;-78
2022/12/09 03:44:29;;;;;;;25.10;14.30;;;4.20;99.90;;;;;;4996499;28;20458;-78
2022/12/09 03:46:56;;;;;;;28.47;19.60;;;4.30;99.90;;;;;;4996856;28;21020;-80
2022/12/09 03:49:23;;;;;;;26.43;16.90;;;4.30;99.90;;;;;;4994717;28;20469;-79
2022/12/09 03:51:56;;;;;;;29.77;16.30;;;4.30;99.90;;;;;;4995283;28;20500;-80
2022/12/09 03:54:26;;;;;;;20.27;15.20;;;4.40;99.90;;;;;;4996291;28;20457;-80
2022/12/09 03:56:56;;;;;;;24.57;16.10;;;4.40;99.90;;;;;;4996640;28;20449;-80
2022/12/09 03:59:25;;;;;;;27.13;16.33;;;4.40;99.90;;;;;;4994527;28;20494;-80
2022/12/09 04:01:53;;;;;;;22.90;14.97;;;4.20;99.90;;;;;;4994458;28;20454;-79
2022/12/09 04:04:19;;;;;;;28.60;17.00;;;4.30;99.90;;;;;;4996514;28;21029;-80
2022/12/09 04:06:47;;;;;;;29.57;18.37;;;4.30;99.90;;;;;;4997141;28;20488;-80
2022/12/09 04:09:15;;;;;;;22.80;16.27;;;4.30;99.90;;;;;;4998610;28;20455;-79
2022/12/09 04:11:42;;;;;;;26.27;16.70;;;4.30;99.90;;;;;;4998660;28;20474;-79
2022/12/09 04:14:09;;;;;;;27.27;18.20;;;4.30;99.90;;;;;;4997706;28;20865;-77
2022/12/09 04:16:36;;;;;;;25.67;15.90;;;4.30;99.90;;;;;;4998150;28;20537;-78
2022/12/09 04:19:02;;;;;;;24.80;15.70;;;4.30;99.90;;;;;;4998926;28;20993;-79
2022/12/09 04:21:29;;;;;;;26.10;16.97;;;4.30;99.90;;;;;;4997627;28;20475;-79
2022/12/09 04:23:56;;;;;;;25.80;16.70;;;4.30;99.90;;;;;;4997659;28;20543;-81
2022/12/09 04:26:24;;;;;;;25.30;15.80;;;4.30;99.90;;;;;;5000193;28;20535;-78
2022/12/09 04:28:51;;;;;;;23.87;16.07;;;4.20;99.90;;;;;;5000565;28;20455;-79
2022/12/09 04:31:19;;;;;;;26.23;15.93;;;4.20;99.90;;;;;;5001019;28;20470;-79
2022/12/09 04:33:47;;;;;;;26.97;17.20;;;4.30;99.90;;;;;;5000652;28;20461;-80
2022/12/09 04:36:16;;;;;;;24.73;16.57;;;4.20;99.90;;;;;;5001450;28;20457;-80
2022/12/09 04:38:43;;;;;;;24.97;16.03;;;4.30;99.90;;;;;;5001852;28;20454;-81
2022/12/09 04:41:10;;;;;;;26.00;17.27;;;4.30;99.90;;;;;;5001623;28;20481;-80
2022/12/09 04:43:38;;;;;;;22.17;14.30;;;4.30;99.90;;;;;;5001374;28;20454;-80
2022/12/09 04:46:07;;;;;;;24.40;16.00;;;4.30;99.90;;;;;;5000917;28;20456;-80
2022/12/09 04:48:34;;;;;;;23.63;15.80;;;4.30;99.90;;;;;;5001935;28;20943;-79
2022/12/09 04:51:01;;;;;;;25.97;17.37;;;4.30;99.90;;;;;;5002171;28;20543;-80
2022/12/09 04:53:29;;;;;;;23.33;15.17;;;4.30;99.90;;;;;;5002250;28;20454;-80
2022/12/09 04:55:59;;;;;;;19.67;15.07;;;4.30;99.90;;;;;;5002125;28;20450;-80
2022/12/09 04:58:26;;;;;;;28.17;18.40;;;4.30;99.90;;;;;;5002251;28;20452;-80
2022/12/09 05:00:54;;;;;;;26.27;17.70;;;4.20;99.90;;;;;;5001495;28;20467;-81
2022/12/09 05:03:21;;;;;;;30.80;18.53;;;4.30;99.90;;;;;;5003350;28;20450;-79
2022/12/09 05:05:48;;;;;;;28.90;16.83;;;4.30;99.90;;;;;;5004033;28;20447;-79
2022/12/09 05:08:15;;;;;;;26.07;17.50;;;4.30;99.90;;;;;;4997717;28;20491;-78
2022/12/09 05:10:46;;;;;;;21.50;15.73;;;4.30;99.90;;;;;;4996763;28;20484;-79
2022/12/09 05:13:12;;;;;;;25.50;17.07;;;4.30;99.90;;;;;;4997222;28;20960;-78
2022/12/09 05:15:39;;;;;;;23.07;14.70;;;4.30;99.90;;;;;;4996966;28;20449;-79
2022/12/09 05:18:07;;;;;;;23.23;16.10;;;4.30;99.90;;;;;;4996915;28;20447;-79
2022/12/09 05:20:34;;;;;;;28.83;18.90;;;4.30;99.90;;;;;;4996122;28;20469;-80
2022/12/09 05:23:01;;;;;;;28.70;16.23;;;4.30;99.90;;;;;;4996345;28;20461;-77
2022/12/09 05:25:28;;;;;;;27.83;16.57;;;4.30;99.90;;;;;;4997344;28;20455;-81
2022/12/09 05:27:55;;;;;;;24.73;16.13;;;4.20;99.90;;;;;;4999811;28;20495;-81
2022/12/09 05:30:21;;;;;;;22.20;15.83;;;4.00;99.90;;;;;;4998458;28;21067;-80
2022/12/09 05:32:48;;;;;;;25.60;16.60;;;3.90;99.90;;;;;;5000375;28;20484;-81
2022/12/09 05:35:16;;;;;;;22.10;15.63;;;3.90;99.90;;;;;;4999335;28;20452;-81
2022/12/09 05:37:43;;;;;;;23.10;15.50;;;3.80;99.90;;;;;;4998775;28;20444;-79
2022/12/09 05:40:10;;;;;;;26.90;16.90;;;3.80;99.90;;;;;;4998187;28;20471;-80
2022/12/09 05:42:37;;;;;;;24.97;17.57;;;3.70;99.90;;;;;;4996438;28;20451;-81
2022/12/09 05:45:04;;;;;;;25.90;17.07;;;3.60;99.90;;;;;;4994429;28;20454;-79
2022/12/09 05:47:31;;;;;;;22.57;16.47;;;3.60;99.90;;;;;;4998438;28;20491;-81
2022/12/09 05:49:58;;;;;;;25.23;16.57;;;3.50;99.90;;;;;;4998978;28;21010;-80
2022/12/09 05:52:26;;;;;;;24.10;15.50;;;3.50;99.90;;;;;;4998556;28;20456;-80
2022/12/09 05:54:53;;;;;;;27.87;15.73;;;3.40;99.90;;;;;;4984069;28;20537;-82
2022/12/09 05:57:20;;;;;;;21.00;14.67;;;3.30;99.90;;;;;;4997581;28;20538;-82
2022/12/09 05:59:47;;;;;;;24.50;16.40;;;3.30;99.90;;;;;;5011774;23;20493;-84
2022/12/09 06:02:13;;;;;;;26.13;14.93;;;3.30;99.90;;;;;;4992254;28;20527;-84
2022/12/09 06:04:40;;;;;;;26.60;17.10;;;3.30;99.90;;;;;;4990850;28;20554;-82
2022/12/09 06:07:07;;;;;;;34.67;19.07;;;3.30;99.90;;;;;;4987940;28;20491;-82
2022/12/09 06:09:35;;;;;;;27.30;17.37;;;3.30;99.90;;;;;;4981600;28;20485;-84
2022/12/09 06:12:03;;;;;;;32.30;18.87;;;3.30;99.90;;;;;;4975208;28;20537;-82
2022/12/09 06:14:30;;;;;;;28.27;17.43;;;3.20;99.90;;;;;;4977427;28;21083;-83
2022/12/09 06:16:57;;;;;;;26.23;16.90;;;3.30;99.90;;;;;;4971854;28;20996;-82
2022/12/09 06:19:24;;;;;;;32.37;20.07;;;3.30;99.90;;;;;;4975207;28;20500;-81
2022/12/09 06:21:50;;;;;;;28.50;14.97;;;3.40;99.90;;;;;;4978110;28;20452;-83
2022/12/09 06:24:17;;;;;;;24.27;15.37;;;3.40;99.90;;;;;;4975025;28;20468;-83
2022/12/09 06:26:46;;;;;;;26.63;16.20;;;3.40;99.90;;;;;;4976028;28;21058;-81
2022/12/09 06:29:13;;;;;;;27.57;13.97;;;3.30;99.90;;;;;;4978248;28;20476;-84
2022/12/09 06:31:39;;;;;;;22.20;14.60;;;3.40;99.90;;;;;;4978235;28;20459;-84
2022/12/09 06:34:06;;;;;;;23.67;15.17;;;3.50;99.90;;;;;;4982688;28;21035;-81
2022/12/09 06:36:33;;;;;;;26.63;16.83;;;3.50;99.90;;;;;;4983108;28;20542;-83
2022/12/09 06:39:02;;;;;;;22.60;15.70;;;3.60;99.90;;;;;;4981224;28;20490;-83
2022/12/09 06:41:29;;;;;;;22.33;14.37;;;3.50;99.90;;;;;;4984909;28;20456;-83
2022/12/09 06:43:58;;;;;;;27.10;17.00;;;3.60;99.90;;;;;;4986540;28;20519;-81
2022/12/09 06:46:26;;;;;;;21.30;15.03;;;3.60;99.90;;;;;;4988399;28;20472;-83
2022/12/09 06:48:54;;;;;;;22.33;15.30;;;3.60;99.90;;;;;;4995452;28;20540;-83
2022/12/09 06:51:22;;;;;;;22.00;15.50;;;3.50;99.90;;;;;;4986447;28;20475;-84
2022/12/09 06:53:49;;;;;;;21.80;13.87;;;3.60;99.90;;;;;;4996428;28;20487;-82
2022/12/09 06:56:16;;;;;;;23.60;14.83;;;3.60;99.90;;;;;;4992344;28;20456;-82
2022/12/09 06:58:45;;;;;;;19.47;13.70;;;3.70;99.90;;;;;;4972035;28;20543;-83
2022/12/09 07:01:15;;;;;;;21.67;14.90;;;3.70;99.90;;;;;;4980336;28;20463;-81
2022/12/09 07:03:44;;;;;;;16.40;11.67;;;3.70;99.90;;;;;;4981221;28;20535;-85
2022/12/09 07:06:20;;;;;;;15.70;11.13;;;3.70;99.90;;;;;;4981494;28;20555;-83
2022/12/09 07:08:47;;;;;;;18.07;10.83;;;3.70;99.90;;;;;;4968384;28;20562;-82
2022/12/09 07:11:14;;;;;;;14.70;11.13;;;3.70;99.90;;;;;;4972599;28;20540;-82
2022/12/09 07:13:41;;;;;;;17.50;12.40;;;3.60;99.90;;;;;;4968978;28;21015;-83
2022/12/09 07:16:08;;;;;;;15.20;11.10;;;3.70;99.90;;;;;;4977207;28;20467;-83
2022/12/09 07:18:36;;;;;;;18.97;11.27;;;3.70;99.90;;;;;;4975515;28;20511;-83
2022/12/09 07:21:07;;;;;;;20.10;12.50;;;3.70;99.90;;;;;;4979294;28;20474;-84
2022/12/09 07:23:34;;;;;;;22.43;13.47;;;3.70;99.90;;;;;;4979634;28;20550;-82
2022/12/09 07:26:01;;;;;;;20.87;13.00;;;3.60;99.90;;;;;;4981653;28;20455;-83
2022/12/09 07:28:28;;;;;;;21.33;12.20;;;3.60;99.90;;;;;;4978705;28;21008;-83
2022/12/09 07:30:55;;;;;;;20.70;13.23;;;3.70;99.90;;;;;;4979224;28;20531;-83
2022/12/09 07:33:22;;;;;;;20.50;13.30;;;3.80;99.90;;;;;;4980346;28;20479;-83
2022/12/09 07:35:50;;;;;;;19.47;14.30;;;3.80;99.90;;;;;;4977819;28;20456;-83
2022/12/09 07:38:17;;;;;;;18.27;12.80;;;3.80;99.90;;;;;;4978624;28;20453;-82
2022/12/09 07:40:43;;;;;;;22.47;12.83;;;3.80;99.90;;;;;;4979900;28;20462;-84
2022/12/09 07:43:10;;;;;;;18.93;13.27;;;3.80;99.90;;;;;;4980669;28;20555;-84
2022/12/09 07:45:37;;;;;;;22.43;12.37;;;3.80;99.90;;;;;;4979755;28;21036;-83
2022/12/09 07:48:04;;;;;;;16.43;11.67;;;3.80;99.90;;;;;;4979063;28;20470;-83
2022/12/09 07:50:31;;;;;;;19.00;9.90;;;3.90;99.90;;;;;;4977660;28;21065;-84
2022/12/09 07:52:59;;;;;;;15.07;9.80;;;3.90;99.90;;;;;;4971637;28;20453;-83
2022/12/09 07:55:26;;;;;;;20.97;11.00;;;3.90;99.90;;;;;;4968279;28;20568;-83
2022/12/09 07:57:53;;;;;;;19.43;12.47;;;3.90;99.90;;;;;;4970016;28;20524;-82
2022/12/09 08:00:21;;;;;;;19.80;12.37;;;3.90;99.90;;;;;;4970134;28;20888;-82
2022/12/09 08:02:48;;;;;;;14.70;10.20;;;3.90;99.90;;;;;;4966131;28;20439;-83
2022/12/09 08:05:14;;;;;;;15.83;10.20;;;3.90;99.90;;;;;;4969643;28;20535;-83
2022/12/09 08:07:41;;;;;;;13.57;9.60;;;4.00;99.90;;;;;;4960556;28;20492;-81
2022/12/09 08:10:10;;;;;;;15.20;9.30;;;3.90;99.90;;;;;;4970489;28;20479;-81
2022/12/09 08:12:40;;;;;;;19.97;11.20;;;4.00;99.90;;;;;;4972732;28;20978;-84
2022/12/09 08:15:07;;;;;;;15.43;11.17;;;3.80;99.90;;;;;;4969833;28;20525;-82
2022/12/09 08:17:34;;;;;;;17.43;11.27;;;3.70;99.90;;;;;;4977464;28;20479;-82
2022/12/09 08:20:01;;;;;;;14.77;10.33;;;3.70;99.90;;;;;;4975823;28;20566;-82
2022/12/09 08:22:27;;;;;;;13.57;9.57;;;3.90;99.90;;;;;;4978521;28;20464;-83
2022/12/09 08:24:54;;;;;;;13.50;10.00;;;3.90;99.90;;;;;;4977166;28;20474;-84
2022/12/09 08:27:24;;;;;;;17.20;9.43;;;4.00;99.90;;;;;;4977766;28;20571;-83
2022/12/09 08:29:50;;;;;;;18.30;11.10;;;4.00;99.90;;;;;;4973248;28;20473;-83
2022/12/09 08:32:17;;;;;;;5.00;2.90;;;3.90;99.90;;;;;;4978417;28;20460;-81
2022/12/09 08:34:45;;;;;;;31.67;18.77;;;6.60;99.90;;;;;;4978264;28;20428;-83
2022/12/09 08:37:12;;;;;;;31.17;20.30;;;6.10;99.90;;;;;;4978994;28;20461;-84
2022/12/09 08:39:38;;;;;;;26.10;18.60;;;5.60;99.90;;;;;;4976600;28;20495;-83
2022/12/09 08:42:05;;;;;;;24.27;17.87;;;5.30;99.90;;;;;;4964998;28;20547;-82
2022/12/09 08:44:33;;;;;;;23.10;15.07;;;5.10;99.90;;;;;;4959903;28;20460;-82
2022/12/09 08:47:00;;;;;;;25.67;15.10;;;4.90;99.90;;;;;;4974135;28;20540;-83
2022/12/09 08:49:28;;;;;;;19.93;13.27;;;4.70;99.90;;;;;;4972233;28;20498;-82
2022/12/09 08:51:55;;;;;;;20.37;13.47;;;4.70;99.90;;;;;;4977058;28;20453;-81
2022/12/09 08:54:22;;;;;;;22.33;14.07;;;4.60;99.90;;;;;;4975758;28;20449;-81
2022/12/09 08:56:53;;;;;;;22.90;13.47;;;4.50;99.90;;;;;;4978556;28;20807;-83
2022/12/09 08:59:21;;;;;;;22.60;12.80;;;4.50;99.90;;;;;;4976990;28;20467;-81
2022/12/09 09:01:49;;;;;;;20.33;13.80;;;4.20;99.90;;;;;;4978920;28;20451;-81
2022/12/09 09:04:19;;;;;;;21.67;13.67;;;4.20;99.90;;;;;;4970141;28;20454;-82
2022/12/09 09:06:48;;;;;;;26.97;14.27;;;4.20;99.90;;;;;;4978118;28;20451;-83
2022/12/09 09:09:15;;;;;;;17.80;12.83;;;4.30;99.90;;;;;;4984494;28;20498;-80
2022/12/09 09:11:43;;;;;;;20.60;13.87;;;4.30;99.90;;;;;;4965489;28;20516;-80
2022/12/09 09:14:11;;;;;;;22.63;12.83;;;4.40;99.90;;;;;;4984439;28;20551;-82
2022/12/09 09:16:39;;;;;;;21.77;12.17;;;4.30;99.90;;;;;;4978909;28;20485;-83
2022/12/09 09:19:08;;;;;;;20.90;12.27;;;4.50;99.90;;;;;;4969729;28;20468;-82
2022/12/09 09:21:35;;;;;;;18.60;11.93;;;4.40;99.90;;;;;;4968716;28;20490;-84
2022/12/09 09:24:02;;;;;;;19.47;12.40;;;4.50;99.90;;;;;;4983931;28;20831;-83
2022/12/09 09:26:29;;;;;;;19.30;12.10;;;4.60;99.90;;;;;;4983456;28;20539;-83
2022/12/09 09:28:58;;;;;;;18.10;13.00;;;4.70;99.90;;;;;;4980057;28;20553;-83
2022/12/09 09:31:25;;;;;;;19.20;13.50;;;4.80;99.90;;;;;;4974335;28;20448;-83
2022/12/09 09:33:54;;;;;;;18.07;11.13;;;4.80;99.90;;;;;;4977245;28;20885;-83
2022/12/09 09:36:24;;;;;;;20.37;10.00;;;4.80;99.90;;;;;;4985050;28;20447;-83
2022/12/09 09:38:52;;;;;;;18.93;11.03;;;4.80;99.90;;;;;;4984070;28;20472;-84
2022/12/09 09:41:26;;;;;;;16.57;10.20;;;4.90;99.90;;;;;;4984561;28;20524;-83
2022/12/09 09:43:55;;;;;;;19.07;11.03;;;5.00;99.90;;;;;;4986225;28;20515;-83
2022/12/09 09:46:29;;;;;;;20.13;13.00;;;5.00;99.90;;;;;;4986081;28;20479;-84
2022/12/09 09:49:00;;;;;;;22.60;14.33;;;5.20;99.90;;;;;;4992292;28;20507;-84
2022/12/09 09:51:29;;;;;;;19.80;11.63;;;5.30;99.90;;;;;;4989583;28;20452;-83
2022/12/09 09:53:56;;;;;;;21.20;13.07;;;5.40;99.90;;;;;;4987262;28;20452;-82
2022/12/09 09:56:28;;;;;;;18.00;11.83;;;5.40;99.90;;;;;;4979940;28;20487;-82
2022/12/09 09:59:09;;;;;;;17.13;11.07;;;5.40;99.90;;;;;;4960287;28;21090;-83
2022/12/09 10:01:37;;;;;;;19.10;12.97;;;5.50;99.90;;;;;;4990820;28;20448;-82
2022/12/09 10:04:13;;;;;;;20.40;12.83;;;5.50;99.90;;;;;;4972527;28;20465;-83
2022/12/09 10:06:47;;;;;;;16.03;11.40;;;5.40;99.90;;;;;;4976683;28;20449;-83
2022/12/09 10:09:21;;;;;;;15.40;9.70;;;5.40;99.90;;;;;;4967088;28;20950;-82
2022/12/09 10:11:57;;;;;;;20.33;11.30;;;5.30;99.90;;;;;;4975442;28;20480;-82
2022/12/09 10:14:50;;;;;;;15.57;10.83;;;5.10;99.90;;;;;;4973847;28;20459;-82
2022/12/09 10:17:26;;;;;;;16.60;10.57;;;5.20;99.90;;;;;;4971487;28;20452;-83
2022/12/09 10:19:57;;;;;;;20.20;11.93;;;5.00;99.90;;;;;;4974502;28;20892;-82
2022/12/09 10:22:28;;;;;;;19.20;11.63;;;5.00;99.90;;;;;;4978524;28;20543;-82
2022/12/09 10:24:57;;;;;;;19.30;13.20;;;4.90;99.90;;;;;;4976687;28;20974;-82
2022/12/09 10:27:30;;;;;;;14.80;10.97;;;4.90;99.90;;;;;;4980855;28;20524;-83
2022/12/09 10:30:00;;;;;;;16.80;10.53;;;5.00;99.90;;;;;;4978942;28;20563;-82
2022/12/09 10:32:31;;;;;;;19.60;11.53;;;5.10;99.90;;;;;;4974339;28;20464;-82
2022/12/09 10:34:59;;;;;;;15.80;9.73;;;5.10;99.90;;;;;;4978860;28;20547;-84
2022/12/09 10:37:30;;;;;;;17.70;10.93;;;4.90;99.90;;;;;;4979738;28;20450;-81
2022/12/09 10:40:20;;;;;;;13.73;9.90;;;4.80;99.90;;;;;;4977915;28;20940;-83
2022/12/09 10:45:34;;;;;;;17.20;10.00;;;5.00;99.90;;;;;;4972932;28;20444;-82
2022/12/09 10:48:01;;;;;;;16.10;9.87;;;5.00;99.90;;;;;;4977844;28;20589;-82
2022/12/09 10:50:32;;;;;;;15.47;11.10;;;5.10;99.90;;;;;;4985947;28;20570;-83
2022/12/09 10:53:05;;;;;;;22.93;11.37;;;5.10;99.90;;;;;;4962873;28;20533;-84
2022/12/09 10:55:36;;;;;;;19.77;12.33;;;5.10;99.90;;;;;;4980454;28;20835;-82
2022/12/09 10:58:14;;;;;;;17.03;11.50;;;5.00;99.90;;;;;;4998142;28;20899;-83
2022/12/09 11:00:41;;;;;;;14.67;10.50;;;5.00;99.90;;;;;;4986761;28;20521;-83
2022/12/09 11:03:26;;;;;;;17.37;11.80;;;5.10;99.90;;;;;;4977539;28;20551;-82
2022/12/09 11:05:59;;;;;;;18.80;10.37;;;5.00;99.90;;;;;;4978039;28;20459;-81
2022/12/09 11:08:27;;;;;;;16.63;11.37;;;5.10;99.90;;;;;;4979666;28;20492;-84
2022/12/09 11:10:54;;;;;;;19.63;11.87;;;5.10;99.90;;;;;;4972750;28;20463;-83
2022/12/09 11:13:33;;;;;;;16.10;11.00;;;5.30;99.90;;;;;;4973058;28;20548;-84
2022/12/09 11:16:03;;;;;;;13.50;9.90;;;5.30;99.90;;;;;;4980778;28;20465;-83
2022/12/09 11:18:34;;;;;;;15.20;9.83;;;5.40;99.90;;;;;;4982694;28;20553;-83
2022/12/09 11:21:03;;;;;;;16.03;10.60;;;5.20;99.90;;;;;;4986757;28;20459;-82
2022/12/09 11:23:32;;;;;;;16.67;11.63;;;5.20;99.90;;;;;;4973932;28;20550;-84
2022/12/09 11:26:01;;;;;;;21.37;12.20;;;4.90;99.90;;;;;;4969250;28;20512;-81
2022/12/09 11:28:29;;;;;;;12.70;9.73;;;4.60;99.90;;;;;;4979374;28;20486;-81
2022/12/09 11:30:59;;;;;;;7.80;4.70;;;4.80;99.90;;;;;;4978420;28;20480;-85
2022/12/09 11:33:28;;;;;;;22.53;14.37;;;7.60;99.90;;;;;;4977225;28;21000;-81
2022/12/09 11:36:00;;;;;;;15.57;12.47;;;6.80;99.90;;;;;;4981933;28;20450;-84
2022/12/09 11:38:40;;;;;;;18.93;11.10;;;6.30;99.90;;;;;;4978237;28;20528;-80
2022/12/09 11:44:19;;;;;;;19.27;11.13;;;6.20;99.90;;;;;;4981388;28;20964;-81
2022/12/09 11:46:54;;;;;;;16.07;9.90;;;5.60;99.90;;;;;;4976179;28;20476;-85
2022/12/09 11:49:21;;;;;;;20.27;9.73;;;5.60;99.90;;;;;;4964508;28;20498;-83
2022/12/09 11:52:01;;;;;;;14.63;10.77;;;5.70;99.90;;;;;;4967556;28;20944;-82
2022/12/09 11:54:33;;;;;;;19.07;11.57;;;5.70;99.90;;;;;;4982231;28;20543;-85
2022/12/09 11:57:01;;;;;;;20.37;12.43;;;5.20;99.90;;;;;;4979099;28;20800;-84
2022/12/09 11:59:36;;;;;;;21.40;12.73;;;5.30;99.90;;;;;;4975277;28;20512;-83
2022/12/09 12:02:14;;;;;;;16.40;11.30;;;5.50;99.90;;;;;;4980329;28;20458;-82
2022/12/09 12:04:49;;;;;;;18.50;11.60;;;5.60;99.90;;;;;;4979922;28;20462;-81
2022/12/09 12:07:20;;;;;;;17.13;10.70;;;5.50;99.90;;;;;;4981093;28;20477;-83
2022/12/09 12:09:53;;;;;;;16.30;11.17;;;5.30;99.90;;;;;;4969144;28;20575;-83
2022/12/09 12:12:25;;;;;;;16.63;10.83;;;5.20;99.90;;;;;;4963917;28;20502;-84
2022/12/09 12:14:52;;;;;;;19.83;12.30;;;5.10;99.90;;;;;;4982712;28;20519;-84
2022/12/09 12:17:25;;;;;;;16.47;11.10;;;5.30;99.90;;;;;;4981970;28;20507;-83
2022/12/09 12:19:55;;;;;;;16.63;11.30;;;5.40;99.90;;;;;;4981791;28;20526;-83
2022/12/09 12:22:46;;;;;;;19.77;10.23;;;5.20;99.90;;;;;;4982510;28;20502;-82
2022/12/09 12:25:30;;;;;;;15.57;10.60;;;5.00;99.90;;;;;;4977586;28;20534;-82
2022/12/09 12:28:16;;;;;;;15.10;10.80;;;5.30;99.90;;;;;;4973655;28;20510;-81
2022/12/09 12:30:50;;;;;;;22.93;10.20;;;5.50;99.90;;;;;;4977232;28;20450;-82
2022/12/09 12:33:35;;;;;;;16.43;12.00;;;5.60;99.90;;;;;;4976804;28;20537;-81
2022/12/09 12:36:12;;;;;;;13.67;9.90;;;5.60;99.90;;;;;;4969442;28;20459;-86
2022/12/09 12:38:54;;;;;;;17.40;11.00;;;5.70;99.90;;;;;;4982669;28;20473;-86
2022/12/09 12:41:32;;;;;;;12.17;8.90;;;5.80;99.90;;;;;;4972718;28;21055;-85
2022/12/09 12:47:05;;;;;;;14.37;10.77;;;6.00;99.90;;;;;;4972062;28;20535;-83
2022/12/09 12:49:51;;;;;;;16.60;11.40;;;5.90;99.90;;;;;;4969525;28;20919;-83
2022/12/09 12:52:30;;;;;;;17.67;10.90;;;5.90;99.90;;;;;;4984876;28;20495;-84
2022/12/09 12:55:06;;;;;;;17.10;11.80;;;6.00;99.90;;;;;;4983564;28;20484;-84
2022/12/09 12:57:46;;;;;;;21.30;13.07;;;6.10;99.90;;;;;;4980722;28;20564;-84
2022/12/09 13:00:17;;;;;;;20.10;12.67;;;6.00;99.90;;;;;;4979695;28;21077;-84